sensor_id;sensor_type;location;lat;lon;timestamp;temperature;humidity
1704;DHT22;849;48.780;9.216;2022-09-16T00:00:16;17.60;99.90
1704;DHT22;849;48.780;9.216;2022-09-16T00:02:45;17.40;99.90
1704;DHT22;849;48.780;9.216;2022-09-16T00:05:11;17.50;99.90
1704;DHT22;849;48.780;9.216;2022-09-16T00:07:37;17.60;99.90
1704;DHT22;849;48.780;9.216;2022-09-16T00:10:04;17.60;99.90
1704;DHT22;849;48.780;9.216;2022-09-16T00:12:31;17.50;99.90
1704;DHT22;849;48.780;9.216;2022-09-16T00:14:57;17.50;99.90
1704;DHT22;849;48.780;9.216;2022-09-16T00:17:25;17.60;99.90
1704;DHT22;849;48.780;9.216;2022-09-16T00:19:50;17.60;99.90
1704;DHT22;849;48.780;9.216;2022-09-16T00:22:17;17.60;99.90
1704;DHT22;849;48.780;9.216;2022-09-16T00:24:43;17.50;99.90
1704;DHT22;849;48.780;9.216;2022-09-16T00:27:08;17.50;99.90
1704;DHT22;849;48.780;9.216;2022-09-16T00:29:34;17.50;99.90
1704;DHT22;849;48.780;9.216;2022-09-16T00:32:00;17.60;99.90
1704;DHT22;849;48.780;9.216;2022-09-16T00:34:26;17.70;99.90
1704;DHT22;849;48.780;9.216;2022-09-16T00:36:52;17.80;99.90
1704;DHT22;849;48.780;9.216;2022-09-16T00:39:17;17.90;99.90
1704;DHT22;849;48.780;9.216;2022-09-16T00:41:43;17.80;99.90
1704;DHT22;849;48.780;9.216;2022-09-16T00:47:13;17.60;99.90
1704;DHT22;849;48.780;9.216;2022-09-16T00:49:41;17.00;99.90
1704;DHT22;849;48.780;9.216;2022-09-16T00:52:08;17.10;99.90
1704;DHT22;849;48.780;9.216;2022-09-16T00:54:35;17.10;99.90
1704;DHT22;849;48.780;9.216;2022-09-16T00:57:03;17.10;99.90
1704;DHT22;849;48.780;9.216;2022-09-16T00:59:34;17.20;99.90
1704;DHT22;849;48.780;9.216;2022-09-16T01:02:06;17.30;99.90
1704;DHT22;849;48.780;9.216;2022-09-16T01:04:37;17.10;99.90
1704;DHT22;849;48.780;9.216;2022-09-16T01:07:05;17.20;99.90
1704;DHT22;849;48.780;9.216;2022-09-16T01:09:31;17.10;99.90
1704;DHT22;849;48.780;9.216;2022-09-16T01:11:57;17.20;99.90
1704;DHT22;849;48.780;9.216;2022-09-16T01:14:25;17.40;99.90
1704;DHT22;849;48.780;9.216;2022-09-16T01:17:16;17.50;99.90
1704;DHT22;849;48.780;9.216;2022-09-16T01:31:31;17.00;99.90
1704;DHT22;849;48.780;9.216;2022-09-16T01:37:05;16.90;99.90
1704;DHT22;849;48.780;9.216;2022-09-16T01:42:54;17.10;99.90
1704;DHT22;849;48.780;9.216;2022-09-16T01:45:38;17.20;99.90
1704;DHT22;849;48.780;9.216;2022-09-16T01:48:33;17.30;99.90
1704;DHT22;849;48.780;9.216;2022-09-16T01:51:02;17.30;99.90
1704;DHT22;849;48.780;9.216;2022-09-16T01:59:11;17.20;99.90
1704;DHT22;849;48.780;9.216;2022-09-16T02:01:44;17.30;99.90
1704;DHT22;849;48.780;9.216;2022-09-16T02:04:15;17.20;99.90
1704;DHT22;849;48.780;9.216;2022-09-16T02:06:43;17.00;99.90
1704;DHT22;849;48.780;9.216;2022-09-16T02:09:17;17.00;99.90
1704;DHT22;849;48.780;9.216;2022-09-16T02:11:46;17.00;99.90
1704;DHT22;849;48.780;9.216;2022-09-16T02:14:21;17.00;99.90
1704;DHT22;849;48.780;9.216;2022-09-16T02:17:01;17.20;99.90
1704;DHT22;849;48.780;9.216;2022-09-16T02:19:42;17.30;99.90
1704;DHT22;849;48.780;9.216;2022-09-16T02:22:12;17.20;99.90
1704;DHT22;849;48.780;9.216;2022-09-16T02:24:42;17.20;99.90
1704;DHT22;849;48.780;9.216;2022-09-16T02:27:13;17.10;99.90
1704;DHT22;849;48.780;9.216;2022-09-16T02:29:47;17.00;99.90
1704;DHT22;849;48.780;9.216;2022-09-16T02:32:15;17.00;99.90
1704;DHT22;849;48.780;9.216;2022-09-16T02:34:45;17.00;99.90
1704;DHT22;849;48.780;9.216;2022-09-16T02:39:48;17.10;99.90
1704;DHT22;849;48.780;9.216;2022-09-16T02:42:14;16.80;99.90
1704;DHT22;849;48.780;9.216;2022-09-16T02:44:42;16.80;99.90
1704;DHT22;849;48.780;9.216;2022-09-16T02:47:09;16.70;99.90
1704;DHT22;849;48.780;9.216;2022-09-16T02:49:56;16.80;99.90
1704;DHT22;849;48.780;9.216;2022-09-16T02:52:50;16.60;99.90
1704;DHT22;849;48.780;9.216;2022-09-16T02:55:40;16.50;99.90
1704;DHT22;849;48.780;9.216;2022-09-16T02:58:10;16.40;99.90
1704;DHT22;849;48.780;9.216;2022-09-16T03:00:46;16.40;99.90
1704;DHT22;849;48.780;9.216;2022-09-16T03:03:13;16.40;99.90
1704;DHT22;849;48.780;9.216;2022-09-16T03:06:06;16.50;99.90
1704;DHT22;849;48.780;9.216;2022-09-16T03:08:35;16.60;99.90
1704;DHT22;849;48.780;9.216;2022-09-16T03:14:34;16.40;99.90
1704;DHT22;849;48.780;9.216;2022-09-16T03:28:20;16.50;99.90
1704;DHT22;849;48.780;9.216;2022-09-16T03:36:01;16.40;99.90
1704;DHT22;849;48.780;9.216;2022-09-16T03:38:31;16.50;99.90
1704;DHT22;849;48.780;9.216;2022-09-16T03:40:58;16.60;99.90
1704;DHT22;849;48.780;9.216;2022-09-16T03:43:24;16.70;99.90
1704;DHT22;849;48.780;9.216;2022-09-16T03:45:50;16.50;99.90
1704;DHT22;849;48.780;9.216;2022-09-16T03:48:16;16.50;99.90
1704;DHT22;849;48.780;9.216;2022-09-16T03:50:41;16.60;99.90
1704;DHT22;849;48.780;9.216;2022-09-16T03:53:08;16.70;99.90
1704;DHT22;849;48.780;9.216;2022-09-16T03:55:33;16.60;99.90
1704;DHT22;849;48.780;9.216;2022-09-16T03:57:59;16.70;99.90
1704;DHT22;849;48.780;9.216;2022-09-16T04:00:25;16.60;99.90
1704;DHT22;849;48.780;9.216;2022-09-16T04:02:50;16.60;99.90
1704;DHT22;849;48.780;9.216;2022-09-16T04:05:16;16.60;99.90
1704;DHT22;849;48.780;9.216;2022-09-16T04:07:41;16.60;99.90
1704;DHT22;849;48.780;9.216;2022-09-16T04:10:07;16.60;99.90
1704;DHT22;849;48.780;9.216;2022-09-16T04:12:36;16.60;99.90
1704;DHT22;849;48.780;9.216;2022-09-16T04:15:02;16.60;99.90
1704;DHT22;849;48.780;9.216;2022-09-16T04:17:30;16.60;99.90
1704;DHT22;849;48.780;9.216;2022-09-16T04:19:56;16.60;99.90
1704;DHT22;849;48.780;9.216;2022-09-16T04:22:22;16.70;99.90
1704;DHT22;849;48.780;9.216;2022-09-16T04:24:47;16.80;99.90
1704;DHT22;849;48.780;9.216;2022-09-16T04:27:13;16.80;99.90
1704;DHT22;849;48.780;9.216;2022-09-16T04:29:38;16.70;99.90
1704;DHT22;849;48.780;9.216;2022-09-16T04:32:04;16.70;99.90
1704;DHT22;849;48.780;9.216;2022-09-16T04:34:30;16.70;99.90
1704;DHT22;849;48.780;9.216;2022-09-16T04:36:57;16.80;99.90
1704;DHT22;849;48.780;9.216;2022-09-16T04:39:23;16.80;99.90
1704;DHT22;849;48.780;9.216;2022-09-16T04:41:48;16.80;99.90
1704;DHT22;849;48.780;9.216;2022-09-16T04:44:14;16.80;99.90
1704;DHT22;849;48.780;9.216;2022-09-16T04:46:40;17.00;99.90
1704;DHT22;849;48.780;9.216;2022-09-16T04:49:05;17.00;99.90
1704;DHT22;849;48.780;9.216;2022-09-16T04:51:31;17.00;99.90
1704;DHT22;849;48.780;9.216;2022-09-16T04:53:58;16.90;99.90
1704;DHT22;849;48.780;9.216;2022-09-16T04:56:29;17.00;99.90
1704;DHT22;849;48.780;9.216;2022-09-16T04:58:58;17.00;99.90
1704;DHT22;849;48.780;9.216;2022-09-16T05:01:27;17.00;99.90
1704;DHT22;849;48.780;9.216;2022-09-16T05:03:56;17.00;99.90
1704;DHT22;849;48.780;9.216;2022-09-16T05:06:31;17.10;99.90
1704;DHT22;849;48.780;9.216;2022-09-16T05:08:58;17.10;99.90
1704;DHT22;849;48.780;9.216;2022-09-16T05:11:30;17.10;99.90
1704;DHT22;849;48.780;9.216;2022-09-16T05:14:04;16.90;99.90
1704;DHT22;849;48.780;9.216;2022-09-16T05:16:30;17.00;99.90
1704;DHT22;849;48.780;9.216;2022-09-16T05:18:58;17.00;99.90
1704;DHT22;849;48.780;9.216;2022-09-16T05:21:27;17.00;99.90
1704;DHT22;849;48.780;9.216;2022-09-16T05:23:53;17.10;99.90
1704;DHT22;849;48.780;9.216;2022-09-16T05:26:26;17.10;99.90
1704;DHT22;849;48.780;9.216;2022-09-16T05:28:53;17.00;99.90
1704;DHT22;849;48.780;9.216;2022-09-16T05:31:26;16.90;99.90
1704;DHT22;849;48.780;9.216;2022-09-16T05:34:36;16.80;99.90
1704;DHT22;849;48.780;9.216;2022-09-16T05:36:44;17.00;99.90
1704;DHT22;849;48.780;9.216;2022-09-16T05:39:12;17.10;99.90
1704;DHT22;849;48.780;9.216;2022-09-16T05:41:39;17.20;99.90
1704;DHT22;849;48.780;9.216;2022-09-16T05:44:05;17.30;99.90
1704;DHT22;849;48.780;9.216;2022-09-16T05:46:33;17.20;99.90
1704;DHT22;849;48.780;9.216;2022-09-16T05:48:59;16.90;99.90
1704;DHT22;849;48.780;9.216;2022-09-16T05:51:25;17.00;99.90
1704;DHT22;849;48.780;9.216;2022-09-16T05:53:52;16.70;99.90
1704;DHT22;849;48.780;9.216;2022-09-16T05:56:23;16.60;99.90
1704;DHT22;849;48.780;9.216;2022-09-16T05:58:54;16.80;99.90
1704;DHT22;849;48.780;9.216;2022-09-16T06:01:22;16.90;99.90
1704;DHT22;849;48.780;9.216;2022-09-16T06:03:49;16.90;99.90
1704;DHT22;849;48.780;9.216;2022-09-16T06:06:26;16.90;99.90
1704;DHT22;849;48.780;9.216;2022-09-16T06:08:55;17.10;99.90
1704;DHT22;849;48.780;9.216;2022-09-16T06:11:21;17.20;99.90
1704;DHT22;849;48.780;9.216;2022-09-16T06:13:55;17.00;99.90
1704;DHT22;849;48.780;9.216;2022-09-16T06:16:21;17.00;99.90
1704;DHT22;849;48.780;9.216;2022-09-16T06:18:48;16.80;99.90
1704;DHT22;849;48.780;9.216;2022-09-16T06:21:13;17.00;99.90
1704;DHT22;849;48.780;9.216;2022-09-16T06:23:39;17.00;99.90
1704;DHT22;849;48.780;9.216;2022-09-16T06:26:13;17.00;99.90
1704;DHT22;849;48.780;9.216;2022-09-16T06:28:39;17.00;99.90
1704;DHT22;849;48.780;9.216;2022-09-16T06:31:11;16.90;99.90
1704;DHT22;849;48.780;9.216;2022-09-16T06:33:37;16.70;99.90
1704;DHT22;849;48.780;9.216;2022-09-16T06:36:04;16.80;99.90
1704;DHT22;849;48.780;9.216;2022-09-16T06:38:30;16.70;99.90
1704;DHT22;849;48.780;9.216;2022-09-16T06:41:00;16.80;99.90
1704;DHT22;849;48.780;9.216;2022-09-16T06:43:27;16.80;99.90
1704;DHT22;849;48.780;9.216;2022-09-16T06:45:57;16.90;99.90
1704;DHT22;849;48.780;9.216;2022-09-16T06:48:24;16.90;99.90
1704;DHT22;849;48.780;9.216;2022-09-16T06:51:00;16.80;99.90
1704;DHT22;849;48.780;9.216;2022-09-16T06:53:26;16.80;99.90
1704;DHT22;849;48.780;9.216;2022-09-16T06:55:53;16.60;99.90
1704;DHT22;849;48.780;9.216;2022-09-16T06:58:18;16.50;99.90
1704;DHT22;849;48.780;9.216;2022-09-16T07:00:44;16.60;99.90
1704;DHT22;849;48.780;9.216;2022-09-16T07:03:10;16.40;99.90
1704;DHT22;849;48.780;9.216;2022-09-16T07:05:35;16.40;99.90
1704;DHT22;849;48.780;9.216;2022-09-16T07:08:01;16.30;99.90
1704;DHT22;849;48.780;9.216;2022-09-16T07:10:27;16.40;99.90
1704;DHT22;849;48.780;9.216;2022-09-16T07:12:52;16.60;99.90
1704;DHT22;849;48.780;9.216;2022-09-16T07:15:18;16.60;99.90
1704;DHT22;849;48.780;9.216;2022-09-16T07:17:43;16.40;99.90
1704;DHT22;849;48.780;9.216;2022-09-16T07:20:09;16.30;99.90
1704;DHT22;849;48.780;9.216;2022-09-16T07:22:35;16.00;99.90
1704;DHT22;849;48.780;9.216;2022-09-16T07:25:00;16.00;99.90
1704;DHT22;849;48.780;9.216;2022-09-16T07:27:26;16.20;99.90
1704;DHT22;849;48.780;9.216;2022-09-16T07:29:52;16.20;99.90
1704;DHT22;849;48.780;9.216;2022-09-16T07:32:18;16.40;99.90
1704;DHT22;849;48.780;9.216;2022-09-16T07:34:44;16.50;99.90
1704;DHT22;849;48.780;9.216;2022-09-16T07:37:10;16.60;99.90
1704;DHT22;849;48.780;9.216;2022-09-16T07:39:37;16.60;99.90
1704;DHT22;849;48.780;9.216;2022-09-16T07:42:02;16.70;99.90
1704;DHT22;849;48.780;9.216;2022-09-16T07:44:28;16.70;99.90
1704;DHT22;849;48.780;9.216;2022-09-16T07:46:54;16.80;99.90
1704;DHT22;849;48.780;9.216;2022-09-16T07:49:20;17.00;99.90
1704;DHT22;849;48.780;9.216;2022-09-16T07:51:45;17.10;99.90
1704;DHT22;849;48.780;9.216;2022-09-16T07:54:13;17.00;99.90
1704;DHT22;849;48.780;9.216;2022-09-16T07:56:40;16.90;99.90
1704;DHT22;849;48.780;9.216;2022-09-16T07:59:10;17.00;99.90
1704;DHT22;849;48.780;9.216;2022-09-16T08:01:36;17.10;99.90
1704;DHT22;849;48.780;9.216;2022-09-16T08:04:02;17.00;99.90
1704;DHT22;849;48.780;9.216;2022-09-16T08:06:30;17.10;99.90
1704;DHT22;849;48.780;9.216;2022-09-16T08:08:59;17.10;99.90
1704;DHT22;849;48.780;9.216;2022-09-16T08:11:27;17.10;99.90
1704;DHT22;849;48.780;9.216;2022-09-16T08:13:53;17.20;99.90
1704;DHT22;849;48.780;9.216;2022-09-16T08:16:20;17.30;99.90
1704;DHT22;849;48.780;9.216;2022-09-16T08:18:49;17.50;99.90
1704;DHT22;849;48.780;9.216;2022-09-16T08:21:17;17.50;99.90
1704;DHT22;849;48.780;9.216;2022-09-16T08:23:43;17.50;99.90
1704;DHT22;849;48.780;9.216;2022-09-16T08:26:10;17.40;99.90
1704;DHT22;849;48.780;9.216;2022-09-16T08:28:38;17.60;99.90
1704;DHT22;849;48.780;9.216;2022-09-16T08:31:04;17.60;99.90
1704;DHT22;849;48.780;9.216;2022-09-16T08:33:30;17.60;99.90
1704;DHT22;849;48.780;9.216;2022-09-16T08:36:18;17.70;99.90
1704;DHT22;849;48.780;9.216;2022-09-16T08:38:45;17.80;99.90
1704;DHT22;849;48.780;9.216;2022-09-16T08:43:58;17.70;99.90
1704;DHT22;849;48.780;9.216;2022-09-16T08:46:55;17.60;99.90
1704;DHT22;849;48.780;9.216;2022-09-16T08:52:04;17.90;99.90
1704;DHT22;849;48.780;9.216;2022-09-16T08:54:48;17.80;99.90
1704;DHT22;849;48.780;9.216;2022-09-16T08:57:19;17.70;99.90
1704;DHT22;849;48.780;9.216;2022-09-16T08:59:50;17.80;99.90
1704;DHT22;849;48.780;9.216;2022-09-16T09:02:38;17.90;99.90
1704;DHT22;849;48.780;9.216;2022-09-16T09:05:14;17.90;99.90
1704;DHT22;849;48.780;9.216;2022-09-16T09:16:00;17.80;99.90
1704;DHT22;849;48.780;9.216;2022-09-16T09:18:52;17.40;99.90
1704;DHT22;849;48.780;9.216;2022-09-16T09:21:30;17.50;99.90
1704;DHT22;849;48.780;9.216;2022-09-16T09:24:28;17.70;99.90
1704;DHT22;849;48.780;9.216;2022-09-16T09:27:07;17.50;99.90
1704;DHT22;849;48.780;9.216;2022-09-16T09:41:12;17.70;99.90
1704;DHT22;849;48.780;9.216;2022-09-16T09:43:44;17.90;99.90
1704;DHT22;849;48.780;9.216;2022-09-16T09:46:23;18.00;99.90
1704;DHT22;849;48.780;9.216;2022-09-16T09:54:37;18.20;99.90
1704;DHT22;849;48.780;9.216;2022-09-16T10:02:50;18.10;99.90
1704;DHT22;849;48.780;9.216;2022-09-16T10:05:20;18.20;99.90
1704;DHT22;849;48.780;9.216;2022-09-16T10:07:47;18.20;99.90
1704;DHT22;849;48.780;9.216;2022-09-16T10:10:19;18.30;99.90
1704;DHT22;849;48.780;9.216;2022-09-16T10:12:45;18.30;99.90
1704;DHT22;849;48.780;9.216;2022-09-16T10:15:23;18.30;99.90
1704;DHT22;849;48.780;9.216;2022-09-16T10:17:51;18.30;99.90
1704;DHT22;849;48.780;9.216;2022-09-16T10:20:25;18.30;99.90
1704;DHT22;849;48.780;9.216;2022-09-16T10:23:18;18.30;99.90
1704;DHT22;849;48.780;9.216;2022-09-16T10:25:45;18.30;99.90
1704;DHT22;849;48.780;9.216;2022-09-16T10:28:22;18.40;99.90
1704;DHT22;849;48.780;9.216;2022-09-16T10:30:53;18.40;99.90
1704;DHT22;849;48.780;9.216;2022-09-16T10:36:05;18.30;99.90
1704;DHT22;849;48.780;9.216;2022-09-16T10:41:14;18.10;99.90
1704;DHT22;849;48.780;9.216;2022-09-16T10:44:10;18.00;99.90
1704;DHT22;849;48.780;9.216;2022-09-16T10:46:36;18.10;99.90
1704;DHT22;849;48.780;9.216;2022-09-16T10:49:09;18.20;99.90
1704;DHT22;849;48.780;9.216;2022-09-16T10:51:36;18.10;99.90
1704;DHT22;849;48.780;9.216;2022-09-16T10:54:04;17.70;99.90
1704;DHT22;849;48.780;9.216;2022-09-16T10:56:45;17.60;99.90
1704;DHT22;849;48.780;9.216;2022-09-16T10:59:12;17.70;99.90
1704;DHT22;849;48.780;9.216;2022-09-16T11:02:14;17.90;99.90
1704;DHT22;849;48.780;9.216;2022-09-16T11:05:16;17.90;99.90
1704;DHT22;849;48.780;9.216;2022-09-16T11:08:05;17.80;99.90
1704;DHT22;849;48.780;9.216;2022-09-16T11:10:55;17.40;99.90
1704;DHT22;849;48.780;9.216;2022-09-16T11:13:49;17.10;99.90
1704;DHT22;849;48.780;9.216;2022-09-16T11:30:21;17.70;99.90
1704;DHT22;849;48.780;9.216;2022-09-16T11:57:17;17.30;99.90
1704;DHT22;849;48.780;9.216;2022-09-16T12:00:02;17.20;99.90
1704;DHT22;849;48.780;9.216;2022-09-16T12:05:28;16.70;99.90
1704;DHT22;849;48.780;9.216;2022-09-16T12:10:58;17.80;99.90
1704;DHT22;849;48.780;9.216;2022-09-16T12:13:37;17.90;99.90
1704;DHT22;849;48.780;9.216;2022-09-16T12:16:08;17.70;99.90
1704;DHT22;849;48.780;9.216;2022-09-16T12:18:56;17.60;99.90
1704;DHT22;849;48.780;9.216;2022-09-16T12:21:35;18.00;99.90
1704;DHT22;849;48.780;9.216;2022-09-16T12:26:58;17.60;99.90
1704;DHT22;849;48.780;9.216;2022-09-16T12:32:46;17.70;99.90
1704;DHT22;849;48.780;9.216;2022-09-16T12:35:36;17.80;99.90
1704;DHT22;849;48.780;9.216;2022-09-16T12:38:01;17.90;99.90
1704;DHT22;849;48.780;9.216;2022-09-16T12:40:33;17.70;99.90
1704;DHT22;849;48.780;9.216;2022-09-16T12:49:09;17.30;99.90
1704;DHT22;849;48.780;9.216;2022-09-16T12:55:07;17.90;99.90
1704;DHT22;849;48.780;9.216;2022-09-16T13:00:21;18.20;99.90
1704;DHT22;849;48.780;9.216;2022-09-16T13:02:53;18.10;99.90
1704;DHT22;849;48.780;9.216;2022-09-16T13:05:34;18.20;99.90
1704;DHT22;849;48.780;9.216;2022-09-16T13:08:16;18.30;99.90
1704;DHT22;849;48.780;9.216;2022-09-16T13:10:43;18.00;99.90
1704;DHT22;849;48.780;9.216;2022-09-16T13:13:30;17.80;99.90
1704;DHT22;849;48.780;9.216;2022-09-16T13:15:58;18.20;99.90
1704;DHT22;849;48.780;9.216;2022-09-16T13:18:38;18.30;99.90
1704;DHT22;849;48.780;9.216;2022-09-16T13:21:26;18.20;99.90
1704;DHT22;849;48.780;9.216;2022-09-16T13:24:02;18.50;99.90
1704;DHT22;849;48.780;9.216;2022-09-16T13:26:43;18.60;99.90
1704;DHT22;849;48.780;9.216;2022-09-16T13:29:38;18.50;99.90
1704;DHT22;849;48.780;9.216;2022-09-16T13:32:04;17.70;99.90
1704;DHT22;849;48.780;9.216;2022-09-16T13:34:30;17.80;99.90
1704;DHT22;849;48.780;9.216;2022-09-16T13:36:56;17.80;99.90
1704;DHT22;849;48.780;9.216;2022-09-16T13:39:31;17.40;99.90
1704;DHT22;849;48.780;9.216;2022-09-16T13:42:18;17.60;99.90
1704;DHT22;849;48.780;9.216;2022-09-16T13:44:45;18.00;99.90
1704;DHT22;849;48.780;9.216;2022-09-16T13:49:50;17.90;99.90
1704;DHT22;849;48.780;9.216;2022-09-16T13:54:55;18.10;99.90
1704;DHT22;849;48.780;9.216;2022-09-16T13:57:45;18.50;99.90
1704;DHT22;849;48.780;9.216;2022-09-16T14:00:20;18.50;99.90
1704;DHT22;849;48.780;9.216;2022-09-16T14:08:06;18.30;99.90
1704;DHT22;849;48.780;9.216;2022-09-16T14:13:15;18.50;99.90
1704;DHT22;849;48.780;9.216;2022-09-16T14:15:53;18.60;99.70
1704;DHT22;849;48.780;9.216;2022-09-16T14:18:23;18.80;98.60
1704;DHT22;849;48.780;9.216;2022-09-16T14:23:22;18.90;97.50
1704;DHT22;849;48.780;9.216;2022-09-16T14:25:48;19.20;98.80
1704;DHT22;849;48.780;9.216;2022-09-16T14:28:18;19.20;97.00
1704;DHT22;849;48.780;9.216;2022-09-16T14:30:54;19.20;96.80
1704;DHT22;849;48.780;9.216;2022-09-16T14:33:35;19.00;95.00
1704;DHT22;849;48.780;9.216;2022-09-16T14:36:09;18.80;94.80
1704;DHT22;849;48.780;9.216;2022-09-16T14:38:41;18.60;94.70
1704;DHT22;849;48.780;9.216;2022-09-16T14:41:09;18.40;95.80
1704;DHT22;849;48.780;9.216;2022-09-16T14:43:38;18.40;95.70
1704;DHT22;849;48.780;9.216;2022-09-16T14:46:06;18.50;95.70
1704;DHT22;849;48.780;9.216;2022-09-16T14:48:34;19.90;96.00
1704;DHT22;849;48.780;9.216;2022-09-16T14:51:02;20.80;93.60
1704;DHT22;849;48.780;9.216;2022-09-16T14:53:31;20.50;90.30
1704;DHT22;849;48.780;9.216;2022-09-16T14:55:57;20.20;91.00
1704;DHT22;849;48.780;9.216;2022-09-16T14:58:26;20.00;90.90
1704;DHT22;849;48.780;9.216;2022-09-16T15:01:03;19.60;90.60
1704;DHT22;849;48.780;9.216;2022-09-16T15:04:01;19.00;91.30
1704;DHT22;849;48.780;9.216;2022-09-16T15:06:34;18.60;92.10
1704;DHT22;849;48.780;9.216;2022-09-16T15:09:05;18.50;92.00
1704;DHT22;849;48.780;9.216;2022-09-16T15:11:35;18.90;94.00
1704;DHT22;849;48.780;9.216;2022-09-16T15:14:08;18.90;92.10
1704;DHT22;849;48.780;9.216;2022-09-16T15:16:40;18.90;92.10
1704;DHT22;849;48.780;9.216;2022-09-16T15:19:12;18.80;92.50
1704;DHT22;849;48.780;9.216;2022-09-16T15:21:42;18.70;92.90
1704;DHT22;849;48.780;9.216;2022-09-16T15:24:19;18.40;93.10
1704;DHT22;849;48.780;9.216;2022-09-16T15:26:47;18.50;93.40
1704;DHT22;849;48.780;9.216;2022-09-16T15:31:42;18.40;93.90
1704;DHT22;849;48.780;9.216;2022-09-16T15:36:54;18.10;94.40
1704;DHT22;849;48.780;9.216;2022-09-16T15:39:33;18.10;95.20
1704;DHT22;849;48.780;9.216;2022-09-16T15:42:19;18.20;96.10
1704;DHT22;849;48.780;9.216;2022-09-16T15:44:53;18.40;94.90
1704;DHT22;849;48.780;9.216;2022-09-16T15:47:29;18.50;94.80
1704;DHT22;849;48.780;9.216;2022-09-16T15:50:02;18.40;93.50
1704;DHT22;849;48.780;9.216;2022-09-16T15:52:33;18.10;93.70
1704;DHT22;849;48.780;9.216;2022-09-16T15:55:02;18.50;95.90
1704;DHT22;849;48.780;9.216;2022-09-16T15:57:36;19.30;93.70
1704;DHT22;849;48.780;9.216;2022-09-16T16:00:11;20.60;93.00
1704;DHT22;849;48.780;9.216;2022-09-16T16:02:51;21.10;85.60
1704;DHT22;849;48.780;9.216;2022-09-16T16:05:28;21.30;84.90
1704;DHT22;849;48.780;9.216;2022-09-16T16:07:59;22.60;79.20
1704;DHT22;849;48.780;9.216;2022-09-16T16:10:30;22.90;74.60
1704;DHT22;849;48.780;9.216;2022-09-16T16:12:58;22.40;74.70
1704;DHT22;849;48.780;9.216;2022-09-16T16:15:37;21.60;75.80
1704;DHT22;849;48.780;9.216;2022-09-16T16:18:06;20.70;81.50
1704;DHT22;849;48.780;9.216;2022-09-16T16:20:33;20.50;82.80
1704;DHT22;849;48.780;9.216;2022-09-16T16:23:00;20.00;82.80
1704;DHT22;849;48.780;9.216;2022-09-16T16:25:26;19.30;85.20
1704;DHT22;849;48.780;9.216;2022-09-16T16:27:52;18.90;90.40
1704;DHT22;849;48.780;9.216;2022-09-16T16:30:18;18.60;90.40
1704;DHT22;849;48.780;9.216;2022-09-16T16:32:44;18.30;90.80
1704;DHT22;849;48.780;9.216;2022-09-16T16:35:11;18.10;91.80
1704;DHT22;849;48.780;9.216;2022-09-16T16:37:37;18.30;91.40
1704;DHT22;849;48.780;9.216;2022-09-16T16:40:04;18.60;91.60
1704;DHT22;849;48.780;9.216;2022-09-16T16:42:30;18.70;90.60
1704;DHT22;849;48.780;9.216;2022-09-16T16:44:56;18.50;90.00
1704;DHT22;849;48.780;9.216;2022-09-16T16:47:21;18.20;90.50
1704;DHT22;849;48.780;9.216;2022-09-16T16:49:48;18.10;91.90
1704;DHT22;849;48.780;9.216;2022-09-16T16:52:15;18.50;92.00
1704;DHT22;849;48.780;9.216;2022-09-16T16:54:40;18.60;91.70
1704;DHT22;849;48.780;9.216;2022-09-16T16:57:08;18.70;91.10
1704;DHT22;849;48.780;9.216;2022-09-16T16:59:34;18.50;90.20
1704;DHT22;849;48.780;9.216;2022-09-16T17:02:02;18.60;91.00
1704;DHT22;849;48.780;9.216;2022-09-16T17:04:31;18.40;89.00
1704;DHT22;849;48.780;9.216;2022-09-16T17:06:56;18.10;89.40
1704;DHT22;849;48.780;9.216;2022-09-16T17:09:22;17.70;90.70
1704;DHT22;849;48.780;9.216;2022-09-16T17:11:56;17.60;91.30
1704;DHT22;849;48.780;9.216;2022-09-16T17:14:24;17.50;91.40
1704;DHT22;849;48.780;9.216;2022-09-16T17:16:51;17.60;91.70
1704;DHT22;849;48.780;9.216;2022-09-16T17:19:20;17.70;91.50
1704;DHT22;849;48.780;9.216;2022-09-16T17:21:47;17.20;92.50
1704;DHT22;849;48.780;9.216;2022-09-16T17:24:15;17.00;93.70
1704;DHT22;849;48.780;9.216;2022-09-16T17:26:44;16.60;94.80
1704;DHT22;849;48.780;9.216;2022-09-16T17:29:10;16.40;96.20
1704;DHT22;849;48.780;9.216;2022-09-16T17:31:40;16.60;97.60
1704;DHT22;849;48.780;9.216;2022-09-16T17:34:11;16.60;99.90
1704;DHT22;849;48.780;9.216;2022-09-16T17:36:40;16.10;99.90
1704;DHT22;849;48.780;9.216;2022-09-16T17:39:10;15.70;99.90
1704;DHT22;849;48.780;9.216;2022-09-16T17:41:40;15.50;99.90
1704;DHT22;849;48.780;9.216;2022-09-16T17:44:09;15.40;99.90
1704;DHT22;849;48.780;9.216;2022-09-16T17:46:35;15.60;99.90
1704;DHT22;849;48.780;9.216;2022-09-16T17:49:03;15.80;99.90
1704;DHT22;849;48.780;9.216;2022-09-16T17:51:30;16.20;99.90
1704;DHT22;849;48.780;9.216;2022-09-16T17:53:56;16.40;99.90
1704;DHT22;849;48.780;9.216;2022-09-16T17:56:21;16.40;99.90
1704;DHT22;849;48.780;9.216;2022-09-16T17:58:50;16.50;99.90
1704;DHT22;849;48.780;9.216;2022-09-16T18:01:20;16.60;99.90
1704;DHT22;849;48.780;9.216;2022-09-16T18:03:52;16.50;99.90
1704;DHT22;849;48.780;9.216;2022-09-16T18:06:22;16.60;99.90
1704;DHT22;849;48.780;9.216;2022-09-16T18:08:49;16.70;99.90
1704;DHT22;849;48.780;9.216;2022-09-16T18:11:15;16.70;99.90
1704;DHT22;849;48.780;9.216;2022-09-16T18:13:42;16.60;99.90
1704;DHT22;849;48.780;9.216;2022-09-16T18:16:14;16.40;99.90
1704;DHT22;849;48.780;9.216;2022-09-16T18:18:41;16.40;99.90
1704;DHT22;849;48.780;9.216;2022-09-16T18:21:09;16.50;99.90
1704;DHT22;849;48.780;9.216;2022-09-16T18:23:36;16.60;99.90
1704;DHT22;849;48.780;9.216;2022-09-16T18:26:03;16.50;99.90
1704;DHT22;849;48.780;9.216;2022-09-16T18:28:30;16.40;99.90
1704;DHT22;849;48.780;9.216;2022-09-16T18:31:04;16.50;99.90
1704;DHT22;849;48.780;9.216;2022-09-16T18:33:30;16.50;99.90
1704;DHT22;849;48.780;9.216;2022-09-16T18:36:01;16.40;99.90
1704;DHT22;849;48.780;9.216;2022-09-16T18:38:29;16.30;99.90
1704;DHT22;849;48.780;9.216;2022-09-16T18:41:13;16.10;99.90
1704;DHT22;849;48.780;9.216;2022-09-16T18:43:41;16.10;99.90
1704;DHT22;849;48.780;9.216;2022-09-16T18:48:40;16.30;99.90
1704;DHT22;849;48.780;9.216;2022-09-16T18:51:12;16.20;99.90
1704;DHT22;849;48.780;9.216;2022-09-16T18:53:37;16.10;99.90
1704;DHT22;849;48.780;9.216;2022-09-16T18:56:03;16.00;99.90
1704;DHT22;849;48.780;9.216;2022-09-16T18:58:29;16.10;99.90
1704;DHT22;849;48.780;9.216;2022-09-16T19:01:05;16.20;99.90
1704;DHT22;849;48.780;9.216;2022-09-16T19:03:30;16.20;99.90
1704;DHT22;849;48.780;9.216;2022-09-16T19:05:56;16.00;99.90
1704;DHT22;849;48.780;9.216;2022-09-16T19:08:22;15.90;99.90
1704;DHT22;849;48.780;9.216;2022-09-16T19:10:48;16.00;99.90
1704;DHT22;849;48.780;9.216;2022-09-16T19:13:13;16.00;99.90
1704;DHT22;849;48.780;9.216;2022-09-16T19:15:39;16.10;99.90
1704;DHT22;849;48.780;9.216;2022-09-16T19:18:04;15.80;99.90
1704;DHT22;849;48.780;9.216;2022-09-16T19:20:30;15.80;99.90
1704;DHT22;849;48.780;9.216;2022-09-16T19:22:56;15.60;99.90
1704;DHT22;849;48.780;9.216;2022-09-16T19:25:22;15.50;99.90
1704;DHT22;849;48.780;9.216;2022-09-16T19:27:50;15.50;99.90
1704;DHT22;849;48.780;9.216;2022-09-16T19:30:16;15.40;99.90
1704;DHT22;849;48.780;9.216;2022-09-16T19:32:42;15.50;99.90
1704;DHT22;849;48.780;9.216;2022-09-16T19:35:07;15.40;99.90